Time;durP1;ratioP1;P1;durP2;ratioP2;P2;SDS_P1;SDS_P2;PMS_P1;PMS_P2;Temp;Humidity;BMP_temperature;BMP_pressure;BME280_temperature;BME280_humidity;BME280_pressure;Samples;Min_cycle;Max_cycle;Signal;HPM_P1;HPM_P2
2021/07/28 00:00:48;;;;;;;16.92;9.68;;;;;;;;;;2093012;28;20203;-58
2021/07/28 00:01:48;;;;;;;9.68;8.85;;;;;;;;;;2085380;28;20175;-57
2021/07/28 00:02:48;;;;;;;10.40;9.40;;;;;;;;;;2092816;28;20182;-59
2021/07/28 00:03:49;;;;;;;9.90;8.55;;;;;;;;;;2090102;28;20172;-60
2021/07/28 00:04:49;;;;;;;10.65;9.13;;;;;;;;;;2090476;28;20781;-59
2021/07/28 00:05:50;;;;;;;16.30;10.48;;;;;;;;;;2090175;28;20607;-58
2021/07/28 00:06:50;;;;;;;11.52;9.63;;;;;;;;;;2087828;28;20250;-60
2021/07/28 00:07:51;;;;;;;11.13;8.60;;;;;;;;;;2080995;28;20176;-56
2021/07/28 00:08:51;;;;;;;10.98;9.13;;;;;;;;;;2082051;28;20203;-55
2021/07/28 00:09:51;;;;;;;13.35;10.35;;;;;;;;;;2089737;28;20628;-60
2021/07/28 00:10:51;;;;;;;11.77;10.02;;;;;;;;;;2089459;28;20225;-60
2021/07/28 00:11:52;;;;;;;11.73;10.52;;;;;;;;;;2089130;28;20168;-59
2021/07/28 00:12:52;;;;;;;12.75;9.98;;;;;;;;;;2089712;28;20179;-55
2021/07/28 00:13:52;;;;;;;14.68;11.82;;;;;;;;;;2090220;28;20209;-60
2021/07/28 00:14:52;;;;;;;13.45;12.05;;;;;;;;;;2088668;28;20237;-60
2021/07/28 00:15:55;;;;;;;11.88;10.60;;;;;;;;;;2086132;28;20271;-61
2021/07/28 00:16:56;;;;;;;13.48;11.88;;;;;;;;;;2083259;28;20172;-60
2021/07/28 00:18:00;;;;;;;15.65;11.60;;;;;;;;;;2090098;28;20211;-61
2021/07/28 00:19:12;;;;;;;14.57;12.45;;;;;;;;;;2089643;28;20190;-61
2021/07/28 00:20:26;;;;;;;14.30;12.85;;;;;;;;;;2089821;28;20302;-60
2021/07/28 00:24:04;;;;;;;15.32;11.90;;;;;;;;;;2090108;28;20215;-61
2021/07/28 00:25:05;;;;;;;16.13;13.38;;;;;;;;;;2089945;28;20175;-61
2021/07/28 00:26:11;;;;;;;16.42;12.70;;;;;;;;;;2088840;28;20176;-61
2021/07/28 00:27:11;;;;;;;15.88;12.75;;;;;;;;;;2085431;28;20196;-59
2021/07/28 00:28:12;;;;;;;15.75;12.50;;;;;;;;;;2088659;28;20171;-60
2021/07/28 00:29:12;;;;;;;16.48;13.40;;;;;;;;;;2088768;28;20171;-60
2021/07/28 00:30:12;;;;;;;14.85;13.07;;;;;;;;;;2089717;28;20278;-60
2021/07/28 00:31:12;;;;;;;15.05;12.80;;;;;;;;;;2086754;28;20168;-63
2021/07/28 00:32:13;;;;;;;18.63;14.32;;;;;;;;;;2085048;28;20183;-60
2021/07/28 00:33:13;;;;;;;17.85;14.45;;;;;;;;;;2089105;28;20171;-61
2021/07/28 00:34:13;;;;;;;17.08;13.60;;;;;;;;;;2089150;28;20176;-60
2021/07/28 00:35:14;;;;;;;16.50;13.27;;;;;;;;;;2089369;28;20188;-60
2021/07/28 00:36:14;;;;;;;17.15;13.65;;;;;;;;;;2084957;28;20171;-61
2021/07/28 00:37:14;;;;;;;16.70;13.68;;;;;;;;;;2089354;28;20533;-60
2021/07/28 00:38:14;;;;;;;14.85;13.30;;;;;;;;;;2090016;28;20648;-59
2021/07/28 00:39:15;;;;;;;17.90;14.73;;;;;;;;;;2089209;28;20548;-61
2021/07/28 00:40:15;;;;;;;18.90;14.50;;;;;;;;;;2089343;28;20618;-61
2021/07/28 00:41:16;;;;;;;17.90;13.95;;;;;;;;;;2087192;28;20172;-61
2021/07/28 00:42:16;;;;;;;18.17;14.25;;;;;;;;;;2085306;28;20200;-61
2021/07/28 00:43:16;;;;;;;16.40;12.95;;;;;;;;;;2087303;28;20171;-60
2021/07/28 00:44:16;;;;;;;17.83;15.10;;;;;;;;;;2089570;28;20178;-60
2021/07/28 00:45:17;;;;;;;16.67;14.05;;;;;;;;;;2087818;28;20192;-60
2021/07/28 00:46:17;;;;;;;17.45;15.23;;;;;;;;;;2083947;28;20169;-60
2021/07/28 00:47:17;;;;;;;19.05;14.40;;;;;;;;;;2089316;28;20210;-59
2021/07/28 00:48:18;;;;;;;18.55;14.27;;;;;;;;;;2090062;28;20183;-60
2021/07/28 00:49:18;;;;;;;20.92;15.48;;;;;;;;;;2090712;28;20175;-60
2021/07/28 00:50:18;;;;;;;22.25;15.95;;;;;;;;;;2090087;28;20550;-60
2021/07/28 00:51:19;;;;;;;18.42;15.90;;;;;;;;;;2086719;28;20168;-60
2021/07/28 00:52:19;;;;;;;21.60;15.70;;;;;;;;;;2085517;28;20585;-61
2021/07/28 00:53:20;;;;;;;19.20;14.88;;;;;;;;;;2086701;28;20176;-60
2021/07/28 00:54:20;;;;;;;19.08;14.63;;;;;;;;;;2089817;28;20172;-60
2021/07/28 00:55:20;;;;;;;20.55;15.45;;;;;;;;;;2090060;28;20180;-60
2021/07/28 00:56:21;;;;;;;20.42;15.70;;;;;;;;;;2086673;28;20184;-60
2021/07/28 00:57:21;;;;;;;26.35;15.93;;;;;;;;;;2078312;28;20168;-60
2021/07/28 00:58:22;;;;;;;19.50;15.75;;;;;;;;;;2080514;28;20250;-62
2021/07/28 00:59:23;;;;;;;20.00;15.48;;;;;;;;;;2080823;28;20176;-61
2021/07/28 01:00:23;;;;;;;17.15;14.82;;;;;;;;;;2080462;28;20196;-63
2021/07/28 01:01:23;;;;;;;18.02;15.88;;;;;;;;;;2085077;28;20703;-61
2021/07/28 01:02:23;;;;;;;22.05;17.02;;;;;;;;;;2087199;28;20226;-61
2021/07/28 01:03:24;;;;;;;19.00;15.80;;;;;;;;;;2090106;28;20688;-61
2021/07/28 01:04:25;;;;;;;24.70;16.65;;;;;;;;;;2088895;28;20202;-60
2021/07/28 01:05:25;;;;;;;19.38;15.30;;;;;;;;;;2088939;28;20676;-61
2021/07/28 01:06:25;;;;;;;21.13;15.27;;;;;;;;;;2087103;28;20191;-59
2021/07/28 01:07:26;;;;;;;21.05;16.42;;;;;;;;;;2096982;28;20163;-60
2021/07/28 01:08:27;;;;;;;19.80;15.65;;;;;;;;;;2088685;28;20194;-60
2021/07/28 01:09:28;;;;;;;16.88;15.05;;;;;;;;;;2089129;28;20199;-61
2021/07/28 01:10:29;;;;;;;18.02;14.73;;;;;;;;;;2088397;28;20202;-60
2021/07/28 01:11:29;;;;;;;22.98;16.83;;;;;;;;;;2083923;28;20715;-60
2021/07/28 01:12:31;;;;;;;17.88;14.40;;;;;;;;;;2095936;28;20252;-59
2021/07/28 01:13:33;;;;;;;19.33;15.13;;;;;;;;;;2097077;28;20167;-61
2021/07/28 01:14:34;;;;;;;18.75;14.35;;;;;;;;;;2088584;28;20184;-59
2021/07/28 01:16:36;;;;;;;18.90;14.45;;;;;;;;;;2085668;28;20259;-57
2021/07/28 01:17:37;;;;;;;20.42;15.05;;;;;;;;;;2081554;28;20556;-60
2021/07/28 01:18:37;;;;;;;16.63;14.77;;;;;;;;;;2081448;28;20164;-61
2021/07/28 01:19:44;;;;;;;18.55;13.98;;;;;;;;;;2081347;28;20639;-60
2021/07/28 01:20:45;;;;;;;19.15;15.50;;;;;;;;;;2082039;28;20241;-60
2021/07/28 01:21:47;;;;;;;18.73;14.50;;;;;;;;;;2088309;28;20187;-60
2021/07/28 01:22:48;;;;;;;18.25;14.48;;;;;;;;;;2090346;28;20191;-61
2021/07/28 01:23:49;;;;;;;18.05;14.63;;;;;;;;;;2090087;28;20170;-59
2021/07/28 01:24:50;;;;;;;18.30;15.30;;;;;;;;;;2090305;28;20182;-60
2021/07/28 01:25:51;;;;;;;19.33;15.80;;;;;;;;;;2088503;28;20167;-61
2021/07/28 01:26:52;;;;;;;19.38;15.90;;;;;;;;;;2087266;28;20262;-64
2021/07/28 01:27:54;;;;;;;20.92;15.10;;;;;;;;;;2081253;28;20167;-60
2021/07/28 01:28:54;;;;;;;17.40;14.27;;;;;;;;;;2081973;28;20168;-60
2021/07/28 01:29:54;;;;;;;17.83;14.82;;;;;;;;;;2081821;28;20168;-58
2021/07/28 01:31:04;;;;;;;17.48;14.52;;;;;;;;;;2081788;28;20168;-60
2021/07/28 01:32:04;;;;;;;21.23;16.15;;;;;;;;;;2081745;28;20208;-60
2021/07/28 01:33:05;;;;;;;17.98;15.10;;;;;;;;;;2081795;28;20193;-60
2021/07/28 01:34:05;;;;;;;19.50;15.90;;;;;;;;;;2081839;28;20215;-59
2021/07/28 01:35:07;;;;;;;18.17;14.65;;;;;;;;;;2084333;28;20176;-59
2021/07/28 01:36:08;;;;;;;17.88;15.50;;;;;;;;;;2088839;28;20517;-59
2021/07/28 01:37:10;;;;;;;18.70;14.40;;;;;;;;;;2086014;28;20529;-60
2021/07/28 01:38:10;;;;;;;18.98;15.18;;;;;;;;;;2084399;28;20204;-59
2021/07/28 01:39:11;;;;;;;16.90;15.00;;;;;;;;;;2089262;28;20249;-61
2021/07/28 01:40:12;;;;;;;17.50;14.65;;;;;;;;;;2089063;28;20171;-60
2021/07/28 01:41:12;;;;;;;17.88;14.70;;;;;;;;;;2086740;28;20622;-61
2021/07/28 01:42:12;;;;;;;18.00;14.95;;;;;;;;;;2084043;28;20250;-59
2021/07/28 01:43:13;;;;;;;19.95;14.68;;;;;;;;;;2085576;28;20203;-61
2021/07/28 01:44:14;;;;;;;15.75;14.05;;;;;;;;;;2086032;28;20221;-60
2021/07/28 01:45:14;;;;;;;16.45;14.60;;;;;;;;;;2086218;28;20710;-60
2021/07/28 01:46:14;;;;;;;17.67;14.70;;;;;;;;;;2087805;28;20604;-57
2021/07/28 01:47:15;;;;;;;20.77;15.02;;;;;;;;;;2088738;28;20184;-64
2021/07/28 01:48:16;;;;;;;17.42;15.05;;;;;;;;;;2087331;28;20178;-60
2021/07/28 01:49:16;;;;;;;17.20;14.35;;;;;;;;;;2084981;28;20299;-61
2021/07/28 01:50:16;;;;;;;15.82;13.63;;;;;;;;;;2096412;28;20624;-61
2021/07/28 01:51:17;;;;;;;20.30;15.43;;;;;;;;;;2088743;28;20542;-60
2021/07/28 01:52:17;;;;;;;18.85;14.75;;;;;;;;;;2086936;28;20163;-61
2021/07/28 01:53:17;;;;;;;18.98;14.40;;;;;;;;;;2089424;28;20782;-61
2021/07/28 01:54:17;;;;;;;18.00;14.43;;;;;;;;;;2096365;28;20272;-61
2021/07/28 01:55:18;;;;;;;17.38;14.88;;;;;;;;;;2088681;28;20680;-60
2021/07/28 01:56:18;;;;;;;16.73;13.90;;;;;;;;;;2088762;28;20168;-61
2021/07/28 01:57:18;;;;;;;16.48;13.68;;;;;;;;;;2092576;28;20208;-60
2021/07/28 01:58:19;;;;;;;15.77;14.05;;;;;;;;;;2097683;28;20182;-60
2021/07/28 01:59:21;;;;;;;18.75;15.02;;;;;;;;;;2089436;28;20653;-59
2021/07/28 02:00:21;;;;;;;18.85;14.40;;;;;;;;;;2090430;28;20195;-59
2021/07/28 02:01:22;;;;;;;18.30;15.18;;;;;;;;;;2090053;28;20206;-59
2021/07/28 02:02:22;;;;;;;17.85;14.80;;;;;;;;;;2086429;28;20650;-60
2021/07/28 02:03:22;;;;;;;17.08;14.13;;;;;;;;;;2081721;28;20703;-60
2021/07/28 02:04:23;;;;;;;16.70;14.73;;;;;;;;;;2081391;28;20184;-60
2021/07/28 02:05:23;;;;;;;16.95;13.95;;;;;;;;;;2072968;28;20231;-60
2021/07/28 02:06:23;;;;;;;15.90;14.32;;;;;;;;;;2082233;28;20239;-60
2021/07/28 02:07:23;;;;;;;17.35;14.45;;;;;;;;;;2092297;28;20179;-63
2021/07/28 02:08:26;;;;;;;19.05;15.35;;;;;;;;;;2089535;28;20172;-59
2021/07/28 02:09:26;;;;;;;15.43;13.82;;;;;;;;;;2080653;28;20172;-60
2021/07/28 02:10:27;;;;;;;20.05;15.02;;;;;;;;;;2091713;22;20218;-52
2021/07/28 02:11:27;;;;;;;20.52;15.05;;;;;;;;;;2088598;28;20187;-51
2021/07/28 02:12:27;;;;;;;17.33;14.38;;;;;;;;;;2089484;28;20285;-48
2021/07/28 02:13:28;;;;;;;19.15;14.52;;;;;;;;;;2089065;28;20188;-52
2021/07/28 02:14:28;;;;;;;19.40;14.43;;;;;;;;;;2084806;28;20191;-52
2021/07/28 02:15:29;;;;;;;20.17;15.07;;;;;;;;;;2094800;28;20202;-49
2021/07/28 02:16:29;;;;;;;17.52;14.07;;;;;;;;;;2091613;28;20176;-50
2021/07/28 02:17:29;;;;;;;18.98;14.93;;;;;;;;;;2093474;28;20319;-49
2021/07/28 02:18:29;;;;;;;16.77;14.70;;;;;;;;;;2091566;28;20569;-50
2021/07/28 02:19:30;;;;;;;19.08;14.73;;;;;;;;;;2089873;28;20254;-49
2021/07/28 02:20:31;;;;;;;20.38;14.20;;;;;;;;;;2085864;28;20184;-51
2021/07/28 02:21:33;;;;;;;17.63;14.43;;;;;;;;;;2081041;28;20230;-48
2021/07/28 02:22:33;;;;;;;18.17;15.15;;;;;;;;;;2080674;28;20200;-49
2021/07/28 02:23:34;;;;;;;16.90;14.45;;;;;;;;;;2080713;28;20254;-49
2021/07/28 02:24:34;;;;;;;15.90;14.20;;;;;;;;;;2080938;28;20165;-49
2021/07/28 02:25:34;;;;;;;18.35;13.55;;;;;;;;;;2081410;28;20641;-49
2021/07/28 02:26:35;;;;;;;17.40;14.50;;;;;;;;;;2081495;28;20653;-52
2021/07/28 02:27:35;;;;;;;17.20;13.30;;;;;;;;;;2081943;28;20168;-50
2021/07/28 02:28:35;;;;;;;15.50;13.60;;;;;;;;;;2081134;28;20186;-50
2021/07/28 02:29:36;;;;;;;15.20;13.60;;;;;;;;;;2081315;28;20274;-49
2021/07/28 02:30:36;;;;;;;18.92;14.40;;;;;;;;;;2081298;28;20184;-49
2021/07/28 02:31:36;;;;;;;17.63;14.55;;;;;;;;;;2080748;28;20192;-50
2021/07/28 02:32:37;;;;;;;16.00;13.25;;;;;;;;;;2081385;28;20192;-50
2021/07/28 02:33:37;;;;;;;19.58;14.50;;;;;;;;;;2081294;28;20171;-54
2021/07/28 02:34:37;;;;;;;16.63;13.50;;;;;;;;;;2081622;28;20671;-53
2021/07/28 02:35:38;;;;;;;16.30;14.43;;;;;;;;;;2081324;28;20671;-52
2021/07/28 02:36:39;;;;;;;17.05;14.20;;;;;;;;;;2086472;28;20526;-53
2021/07/28 02:37:42;;;;;;;18.17;13.15;;;;;;;;;;2084634;28;20230;-48
2021/07/28 02:38:43;;;;;;;17.17;13.68;;;;;;;;;;2081451;28;20160;-51
2021/07/28 02:39:43;;;;;;;16.65;13.55;;;;;;;;;;2081272;28;20194;-50
2021/07/28 02:40:43;;;;;;;20.48;14.18;;;;;;;;;;2081510;28;20270;-51
2021/07/28 02:41:43;;;;;;;17.50;13.48;;;;;;;;;;2081052;28;20631;-51
2021/07/28 02:42:44;;;;;;;16.77;14.48;;;;;;;;;;2081815;28;20234;-55
2021/07/28 02:43:44;;;;;;;16.95;15.00;;;;;;;;;;2083260;28;20310;-53
2021/07/28 02:44:44;;;;;;;19.08;14.68;;;;;;;;;;2088277;28;20167;-56
2021/07/28 02:45:44;;;;;;;22.52;15.43;;;;;;;;;;2081915;28;20609;-54
2021/07/28 02:46:45;;;;;;;17.63;13.85;;;;;;;;;;2081309;28;20203;-55
2021/07/28 02:47:45;;;;;;;16.90;14.65;;;;;;;;;;2087110;28;20246;-55
2021/07/28 02:48:45;;;;;;;17.88;14.27;;;;;;;;;;2090528;28;20168;-54
2021/07/28 02:49:45;;;;;;;19.50;15.77;;;;;;;;;;2090591;28;20168;-53
2021/07/28 02:50:46;;;;;;;18.85;15.93;;;;;;;;;;2085087;28;20677;-54
2021/07/28 02:51:46;;;;;;;19.10;14.40;;;;;;;;;;2080198;28;20182;-56
2021/07/28 02:52:46;;;;;;;19.50;15.98;;;;;;;;;;2081217;28;20187;-55
2021/07/28 02:53:46;;;;;;;20.98;15.20;;;;;;;;;;2081707;28;20168;-57
2021/07/28 02:54:47;;;;;;;16.80;14.23;;;;;;;;;;2080325;28;20176;-55
2021/07/28 02:55:47;;;;;;;17.50;14.35;;;;;;;;;;2080797;28;20183;-50
2021/07/28 02:56:48;;;;;;;19.77;15.30;;;;;;;;;;2079664;28;20177;-54
2021/07/28 02:57:48;;;;;;;15.88;14.02;;;;;;;;;;2079762;28;20247;-53
2021/07/28 02:58:49;;;;;;;17.42;14.68;;;;;;;;;;2079972;28;20530;-56
2021/07/28 02:59:49;;;;;;;19.48;14.82;;;;;;;;;;2080360;28;20180;-53
2021/07/28 03:00:49;;;;;;;17.13;14.48;;;;;;;;;;2079965;28;20188;-50
2021/07/28 03:01:50;;;;;;;18.85;13.90;;;;;;;;;;2080698;28;20664;-50
2021/07/28 03:02:50;;;;;;;15.80;14.15;;;;;;;;;;2080595;28;20172;-50
2021/07/28 03:03:50;;;;;;;18.48;14.07;;;;;;;;;;2081950;28;20687;-56
2021/07/28 03:04:51;;;;;;;17.00;14.20;;;;;;;;;;2081093;28;20218;-54
2021/07/28 03:05:51;;;;;;;15.43;13.85;;;;;;;;;;2079910;28;20670;-51
2021/07/28 03:06:51;;;;;;;16.05;13.73;;;;;;;;;;2081434;28;20251;-54
2021/07/28 03:07:51;;;;;;;16.55;13.73;;;;;;;;;;2085795;28;20175;-56
2021/07/28 03:08:51;;;;;;;16.75;13.32;;;;;;;;;;2078345;28;20246;-55
2021/07/28 03:09:52;;;;;;;18.17;13.93;;;;;;;;;;2081118;28;20211;-54
2021/07/28 03:10:52;;;;;;;16.42;13.57;;;;;;;;;;2086149;28;20267;-50
2021/07/28 03:11:52;;;;;;;15.77;13.68;;;;;;;;;;2078678;28;20215;-53
2021/07/28 03:12:53;;;;;;;15.90;13.65;;;;;;;;;;2081502;28;20165;-52
2021/07/28 03:13:53;;;;;;;16.95;13.88;;;;;;;;;;2078819;28;20177;-54
2021/07/28 03:14:54;;;;;;;16.13;13.85;;;;;;;;;;2087766;28;20179;-54
2021/07/28 03:15:55;;;;;;;16.45;13.02;;;;;;;;;;2078985;28;20208;-54
2021/07/28 03:16:55;;;;;;;19.05;14.35;;;;;;;;;;2081466;28;20177;-53
2021/07/28 03:17:55;;;;;;;17.50;13.65;;;;;;;;;;2082841;28;20191;-53
2021/07/28 03:18:55;;;;;;;16.65;13.07;;;;;;;;;;2080069;28;20180;-53
2021/07/28 03:19:56;;;;;;;17.85;13.82;;;;;;;;;;2081597;28;20177;-53
2021/07/28 03:20:56;;;;;;;18.40;14.65;;;;;;;;;;2081966;28;20276;-54
2021/07/28 03:21:56;;;;;;;16.73;14.15;;;;;;;;;;2086647;28;20164;-54
2021/07/28 03:22:56;;;;;;;17.83;13.70;;;;;;;;;;2074556;28;20181;-52
2021/07/28 03:23:57;;;;;;;15.65;13.90;;;;;;;;;;2080327;28;20176;-52
2021/07/28 03:24:57;;;;;;;17.00;13.65;;;;;;;;;;2080709;28;20184;-53
2021/07/28 03:25:57;;;;;;;18.55;14.55;;;;;;;;;;2081013;28;20175;-52
2021/07/28 03:26:57;;;;;;;16.25;14.25;;;;;;;;;;2080311;28;20180;-49
2021/07/28 03:27:57;;;;;;;20.65;14.23;;;;;;;;;;2089846;28;20174;-51
2021/07/28 03:28:58;;;;;;;20.02;15.52;;;;;;;;;;2087867;28;20215;-52
2021/07/28 03:29:58;;;;;;;18.15;14.40;;;;;;;;;;2079485;28;20188;-54
2021/07/28 03:30:58;;;;;;;19.65;14.88;;;;;;;;;;2074774;28;20307;-51
2021/07/28 03:31:59;;;;;;;19.08;14.38;;;;;;;;;;2079853;28;20210;-54
2021/07/28 03:32:59;;;;;;;16.75;14.40;;;;;;;;;;2079806;28;20169;-53
2021/07/28 03:33:59;;;;;;;18.67;14.43;;;;;;;;;;2079877;28;20184;-51
2021/07/28 03:34:59;;;;;;;15.07;13.50;;;;;;;;;;2087954;28;20254;-52
2021/07/28 03:36:00;;;;;;;15.63;13.95;;;;;;;;;;2089630;28;20175;-52
2021/07/28 03:37:00;;;;;;;18.10;14.23;;;;;;;;;;2090243;28;20168;-55
2021/07/28 03:38:00;;;;;;;16.25;14.32;;;;;;;;;;2089591;28;20176;-49
2021/07/28 03:39:00;;;;;;;18.30;14.90;;;;;;;;;;2087170;28;20172;-54
2021/07/28 03:40:01;;;;;;;16.30;14.25;;;;;;;;;;2081829;28;20169;-50
2021/07/28 03:41:02;;;;;;;16.90;13.77;;;;;;;;;;2082898;28;20204;-51
2021/07/28 03:42:02;;;;;;;16.45;14.73;;;;;;;;;;2081824;28;20668;-51
2021/07/28 03:43:02;;;;;;;19.63;13.70;;;;;;;;;;2082390;28;20172;-49
2021/07/28 03:44:03;;;;;;;15.65;13.27;;;;;;;;;;2089516;28;20174;-51
2021/07/28 03:45:03;;;;;;;15.75;14.02;;;;;;;;;;2090900;28;20710;-50
2021/07/28 03:46:04;;;;;;;16.55;13.77;;;;;;;;;;2091035;28;20263;-50
2021/07/28 03:47:04;;;;;;;17.55;13.40;;;;;;;;;;2091119;28;20175;-51
2021/07/28 03:48:04;;;;;;;17.58;14.13;;;;;;;;;;2084228;28;20199;-52
2021/07/28 03:49:04;;;;;;;15.48;13.05;;;;;;;;;;2082886;28;20180;-49
2021/07/28 03:50:05;;;;;;;16.15;14.27;;;;;;;;;;2082765;28;20168;-50
2021/07/28 03:51:05;;;;;;;19.05;13.00;;;;;;;;;;2082839;28;20807;-51
2021/07/28 03:52:06;;;;;;;19.90;13.57;;;;;;;;;;2082940;28;20199;-52
2021/07/28 03:53:06;;;;;;;18.58;14.32;;;;;;;;;;2082732;28;20169;-53
2021/07/28 03:54:06;;;;;;;19.00;14.02;;;;;;;;;;2082915;28;20644;-55
2021/07/28 03:55:07;;;;;;;16.27;14.43;;;;;;;;;;2082640;28;20176;-52
2021/07/28 03:56:07;;;;;;;17.80;14.23;;;;;;;;;;2083040;28;20254;-51
2021/07/28 03:57:07;;;;;;;17.15;14.07;;;;;;;;;;2083475;28;20671;-51
2021/07/28 03:58:08;;;;;;;16.52;13.45;;;;;;;;;;2082358;28;20214;-50
2021/07/28 03:59:08;;;;;;;16.38;13.52;;;;;;;;;;2082157;28;20187;-49
2021/07/28 04:00:08;;;;;;;16.75;13.35;;;;;;;;;;2081755;28;20164;-50
2021/07/28 04:01:09;;;;;;;18.00;14.02;;;;;;;;;;2080562;28;20254;-54
2021/07/28 04:02:12;;;;;;;16.20;13.20;;;;;;;;;;2084142;28;20192;-56
2021/07/28 04:03:12;;;;;;;15.32;13.40;;;;;;;;;;2078378;28;20606;-49
2021/07/28 04:04:13;;;;;;;15.18;12.77;;;;;;;;;;2078266;28;20184;-54
2021/07/28 04:05:13;;;;;;;16.45;13.63;;;;;;;;;;2081192;28;20172;-54
2021/07/28 04:06:14;;;;;;;17.85;13.43;;;;;;;;;;2083155;28;20184;-51
2021/07/28 04:07:14;;;;;;;15.18;12.45;;;;;;;;;;2085548;28;20168;-50
2021/07/28 04:08:14;;;;;;;13.43;12.02;;;;;;;;;;2083745;28;20192;-54
2021/07/28 04:09:15;;;;;;;16.20;12.50;;;;;;;;;;2085735;28;20544;-50
2021/07/28 04:10:15;;;;;;;15.23;13.57;;;;;;;;;;2081169;28;20600;-51
2021/07/28 04:11:15;;;;;;;15.93;13.45;;;;;;;;;;2083622;28;20172;-53
2021/07/28 04:12:16;;;;;;;15.50;13.00;;;;;;;;;;2089674;28;20230;-54
2021/07/28 04:13:16;;;;;;;15.48;13.25;;;;;;;;;;2090119;28;20168;-51
2021/07/28 04:14:16;;;;;;;16.95;12.85;;;;;;;;;;2088627;28;20542;-49
2021/07/28 04:15:16;;;;;;;16.73;13.45;;;;;;;;;;2082529;28;20177;-49
2021/07/28 04:16:17;;;;;;;17.08;13.23;;;;;;;;;;2084066;28;20179;-49
2021/07/28 04:17:17;;;;;;;14.18;12.68;;;;;;;;;;2081985;28;20168;-52
2021/07/28 04:18:17;;;;;;;15.98;12.40;;;;;;;;;;2089912;28;20171;-49
2021/07/28 04:19:18;;;;;;;15.63;12.80;;;;;;;;;;2090291;28;20683;-52
2021/07/28 04:20:18;;;;;;;13.35;11.75;;;;;;;;;;2081860;28;20690;-51
2021/07/28 04:21:18;;;;;;;16.23;12.32;;;;;;;;;;2089778;28;20533;-54
2021/07/28 04:22:19;;;;;;;16.48;13.20;;;;;;;;;;2090635;28;20260;-49
2021/07/28 04:23:20;;;;;;;14.60;12.32;;;;;;;;;;2090647;28;20186;-49
2021/07/28 04:24:20;;;;;;;14.80;11.82;;;;;;;;;;2090750;28;20172;-54
2021/07/28 04:25:20;;;;;;;15.70;12.00;;;;;;;;;;2091102;28;20222;-52
2021/07/28 04:26:21;;;;;;;13.35;12.00;;;;;;;;;;2087621;28;20237;-50
2021/07/28 04:27:21;;;;;;;15.50;11.18;;;;;;;;;;2082871;28;20180;-51
2021/07/28 04:28:21;;;;;;;14.13;11.15;;;;;;;;;;2082551;28;20195;-51
2021/07/28 04:29:21;;;;;;;12.13;10.68;;;;;;;;;;2082502;28;20184;-50
2021/07/28 04:30:22;;;;;;;15.07;11.25;;;;;;;;;;2082363;28;20164;-51
2021/07/28 04:31:22;;;;;;;13.98;11.75;;;;;;;;;;2082002;28;20161;-49
2021/07/28 04:32:22;;;;;;;14.13;11.00;;;;;;;;;;2082367;28;20180;-49
2021/07/28 04:33:23;;;;;;;12.70;11.23;;;;;;;;;;2082559;28;20195;-50
2021/07/28 04:34:23;;;;;;;14.60;10.10;;;;;;;;;;2082333;28;20230;-51
2021/07/28 04:35:23;;;;;;;12.40;10.90;;;;;;;;;;2081841;28;20172;-49
2021/07/28 04:36:23;;;;;;;12.38;10.68;;;;;;;;;;2082241;28;20172;-52
2021/07/28 04:37:24;;;;;;;12.40;11.07;;;;;;;;;;2082425;28;20207;-52
2021/07/28 04:38:25;;;;;;;11.98;10.27;;;;;;;;;;2081736;28;20255;-53
2021/07/28 04:39:25;;;;;;;12.52;10.77;;;;;;;;;;2081941;28;20188;-50
2021/07/28 04:40:25;;;;;;;12.13;10.88;;;;;;;;;;2081450;28;20654;-52
2021/07/28 04:41:26;;;;;;;11.85;10.45;;;;;;;;;;2081311;28;20247;-52
2021/07/28 04:42:26;;;;;;;14.43;10.93;;;;;;;;;;2083373;28;21933;-48
2021/07/28 04:43:26;;;;;;;11.70;10.30;;;;;;;;;;2090026;28;20210;-51
2021/07/28 04:44:27;;;;;;;13.60;11.48;;;;;;;;;;2089723;28;20207;-52
2021/07/28 04:45:27;;;;;;;11.63;10.07;;;;;;;;;;2090356;28;20255;-50
2021/07/28 04:46:27;;;;;;;11.90;10.38;;;;;;;;;;2087156;28;20246;-51
2021/07/28 04:47:27;;;;;;;12.38;10.65;;;;;;;;;;2081571;28;20172;-55
2021/07/28 04:48:28;;;;;;;14.20;10.60;;;;;;;;;;2082169;28;20222;-55
2021/07/28 04:49:28;;;;;;;12.95;10.73;;;;;;;;;;2082031;28;20516;-52
2021/07/28 04:50:29;;;;;;;12.23;10.98;;;;;;;;;;2082200;28;20180;-50
2021/07/28 04:51:29;;;;;;;12.07;10.07;;;;;;;;;;2079834;28;20588;-52
2021/07/28 04:52:29;;;;;;;11.43;10.25;;;;;;;;;;2081288;28;20254;-53
2021/07/28 04:53:30;;;;;;;12.20;10.77;;;;;;;;;;2081465;28;20270;-56
2021/07/28 04:54:30;;;;;;;12.10;10.50;;;;;;;;;;2081364;28;20180;-53
2021/07/28 04:55:30;;;;;;;11.38;9.82;;;;;;;;;;2080894;28;20240;-51
2021/07/28 04:56:31;;;;;;;11.00;9.88;;;;;;;;;;2081052;28;20169;-49
2021/07/28 04:57:31;;;;;;;9.85;8.82;;;;;;;;;;2073871;28;20587;-50
2021/07/28 04:58:31;;;;;;;11.98;9.40;;;;;;;;;;2078898;28;20176;-48
2021/07/28 04:59:31;;;;;;;11.88;10.40;;;;;;;;;;2079783;28;20259;-52
2021/07/28 05:00:32;;;;;;;12.35;9.70;;;;;;;;;;2087123;28;20191;-55
2021/07/28 05:01:32;;;;;;;12.85;9.13;;;;;;;;;;2086423;28;20183;-51
2021/07/28 05:02:32;;;;;;;11.60;10.43;;;;;;;;;;2090263;28;20203;-52
2021/07/28 05:03:32;;;;;;;13.82;10.73;;;;;;;;;;2089407;28;20175;-54
2021/07/28 05:04:33;;;;;;;11.93;10.10;;;;;;;;;;2087686;28;20628;-53
2021/07/28 05:05:33;;;;;;;11.32;9.88;;;;;;;;;;2085797;28;20200;-54
2021/07/28 05:06:33;;;;;;;11.57;9.30;;;;;;;;;;2081971;28;20241;-54
2021/07/28 05:07:33;;;;;;;13.15;10.02;;;;;;;;;;2082054;28;20192;-51
2021/07/28 05:08:34;;;;;;;13.60;9.30;;;;;;;;;;2082120;28;20259;-51
2021/07/28 05:09:34;;;;;;;10.38;9.15;;;;;;;;;;2081832;28;20187;-50
2021/07/28 05:10:35;;;;;;;14.30;9.77;;;;;;;;;;2081865;28;20291;-50
2021/07/28 05:11:35;;;;;;;10.95;9.45;;;;;;;;;;2081474;28;20169;-53
2021/07/28 05:12:35;;;;;;;10.60;9.57;;;;;;;;;;2081775;28;20199;-50
2021/07/28 05:13:36;;;;;;;11.05;9.00;;;;;;;;;;2082172;28;20175;-44
2021/07/28 05:14:36;;;;;;;12.60;9.63;;;;;;;;;;2082155;28;20259;-47
2021/07/28 05:15:36;;;;;;;13.60;9.18;;;;;;;;;;2081315;28;20219;-47
2021/07/28 05:16:36;;;;;;;11.95;9.50;;;;;;;;;;2081555;28;20306;-46
2021/07/28 05:17:37;;;;;;;9.40;8.45;;;;;;;;;;2081771;28;20180;-47
2021/07/28 05:18:37;;;;;;;9.98;9.02;;;;;;;;;;2085399;28;20174;-51
2021/07/28 05:19:37;;;;;;;11.15;8.63;;;;;;;;;;2081769;28;20598;-54
2021/07/28 05:20:38;;;;;;;11.27;9.48;;;;;;;;;;2083903;28;20191;-51
2021/07/28 05:21:38;;;;;;;11.27;10.18;;;;;;;;;;2081388;28;20180;-48
2021/07/28 05:22:38;;;;;;;10.40;9.07;;;;;;;;;;2078585;28;20231;-44
2021/07/28 05:23:38;;;;;;;10.93;9.02;;;;;;;;;;2079977;28;20754;-47
2021/07/28 05:24:39;;;;;;;11.20;8.75;;;;;;;;;;2079862;28;20180;-50
2021/07/28 05:25:39;;;;;;;11.18;9.07;;;;;;;;;;2088797;28;20167;-53
2021/07/28 05:26:39;;;;;;;12.65;9.55;;;;;;;;;;2095660;28;20183;-55
2021/07/28 05:27:40;;;;;;;10.43;9.20;;;;;;;;;;2081140;28;20588;-51
2021/07/28 05:28:40;;;;;;;9.30;8.25;;;;;;;;;;2081000;28;20225;-51
2021/07/28 05:29:40;;;;;;;11.52;8.85;;;;;;;;;;2079584;28;20636;-52
2021/07/28 05:30:41;;;;;;;10.93;9.15;;;;;;;;;;2082926;28;20194;-49
2021/07/28 05:31:41;;;;;;;9.77;8.77;;;;;;;;;;2079739;28;20687;-49
2021/07/28 05:32:41;;;;;;;10.07;8.55;;;;;;;;;;2080589;28;20188;-50
2021/07/28 05:33:42;;;;;;;9.63;8.65;;;;;;;;;;2079268;28;20200;-50
2021/07/28 05:34:43;;;;;;;11.27;8.15;;;;;;;;;;2081067;28;20172;-52
2021/07/28 05:35:48;;;;;;;12.20;9.35;;;;;;;;;;2080982;28;20176;-50
2021/07/28 05:36:48;;;;;;;12.48;8.80;;;;;;;;;;2089349;28;20198;-52
2021/07/28 05:37:48;;;;;;;11.55;8.48;;;;;;;;;;2097530;28;20194;-51
2021/07/28 05:38:48;;;;;;;9.05;8.18;;;;;;;;;;2088458;28;20183;-51
2021/07/28 05:39:49;;;;;;;9.55;8.65;;;;;;;;;;2077707;28;20598;-53
2021/07/28 05:40:49;;;;;;;11.52;9.13;;;;;;;;;;2080722;28;20687;-52
2021/07/28 05:41:49;;;;;;;9.65;8.65;;;;;;;;;;2084272;28;20184;-51
2021/07/28 05:42:50;;;;;;;10.95;8.82;;;;;;;;;;2080834;28;20221;-52
2021/07/28 05:43:50;;;;;;;11.05;8.35;;;;;;;;;;2074807;28;20169;-51
2021/07/28 05:44:50;;;;;;;9.75;8.52;;;;;;;;;;2080705;28;20251;-53
2021/07/28 05:45:51;;;;;;;11.98;8.90;;;;;;;;;;2076104;28;20806;-49
2021/07/28 05:46:52;;;;;;;8.98;8.18;;;;;;;;;;2085898;28;20593;-55
2021/07/28 05:47:52;;;;;;;10.00;8.98;;;;;;;;;;2079776;28;20233;-54
2021/07/28 05:48:52;;;;;;;11.05;8.55;;;;;;;;;;2072745;28;20548;-54
2021/07/28 05:49:52;;;;;;;15.98;9.40;;;;;;;;;;2080662;28;20216;-52
2021/07/28 05:50:53;;;;;;;10.40;9.30;;;;;;;;;;2079255;28;20204;-54
2021/07/28 05:51:53;;;;;;;10.15;8.80;;;;;;;;;;2080840;28;20164;-57
2021/07/28 05:52:53;;;;;;;10.57;8.40;;;;;;;;;;2083503;28;20184;-57
2021/07/28 05:53:53;;;;;;;9.88;8.88;;;;;;;;;;2076968;28;20876;-59
2021/07/28 05:54:54;;;;;;;10.55;8.45;;;;;;;;;;2068275;28;20170;-59
2021/07/28 05:55:55;;;;;;;12.60;9.05;;;;;;;;;;2081874;28;20180;-58
2021/07/28 05:56:55;;;;;;;11.73;9.45;;;;;;;;;;2089709;28;20289;-58
2021/07/28 05:57:58;;;;;;;9.25;8.18;;;;;;;;;;2089610;28;20175;-56